sensor_id;sensor_type;location;lat;lon;timestamp;pressure;altitude;pressure_sealevel;temperature;humidity
23281;BME280;11809;56.390;-3.266;2022-08-23T00:02:13;100533.97;;;18.54;63.85
23281;BME280;11809;56.390;-3.266;2022-08-23T00:04:49;100540.16;;;18.54;63.88
23281;BME280;11809;56.390;-3.266;2022-08-23T00:07:40;100541.97;;;18.54;63.80
23281;BME280;11809;56.390;-3.266;2022-08-23T00:10:10;100540.25;;;18.53;63.96
23281;BME280;11809;56.390;-3.266;2022-08-23T00:12:38;100542.91;;;18.53;63.95
23281;BME280;11809;56.390;-3.266;2022-08-23T00:15:06;100544.84;;;18.51;63.75
23281;BME280;11809;56.390;-3.266;2022-08-23T00:17:35;100549.22;;;18.52;63.82
23281;BME280;11809;56.390;-3.266;2022-08-23T00:20:07;100543.88;;;18.52;64.10
23281;BME280;11809;56.390;-3.266;2022-08-23T00:22:36;100544.84;;;18.51;63.90
23281;BME280;11809;56.390;-3.266;2022-08-23T00:25:05;100547.50;;;18.51;64.00
23281;BME280;11809;56.390;-3.266;2022-08-23T00:27:33;100535.16;;;18.50;63.94
23281;BME280;11809;56.390;-3.266;2022-08-23T00:30:01;100541.44;;;18.49;64.20
23281;BME280;11809;56.390;-3.266;2022-08-23T00:32:32;100546.78;;;18.49;64.03
23281;BME280;11809;56.390;-3.266;2022-08-23T00:34:59;100554.75;;;18.49;64.01
23281;BME280;11809;56.390;-3.266;2022-08-23T00:37:28;100554.63;;;18.50;64.04
23281;BME280;11809;56.390;-3.266;2022-08-23T00:39:57;100558.28;;;18.49;63.80
23281;BME280;11809;56.390;-3.266;2022-08-23T00:42:41;100547.72;;;18.48;63.93
23281;BME280;11809;56.390;-3.266;2022-08-23T00:48:32;100550.38;;;18.48;63.91
23281;BME280;11809;56.390;-3.266;2022-08-23T00:51:20;100553.91;;;18.48;63.92
23281;BME280;11809;56.390;-3.266;2022-08-23T00:53:54;100551.34;;;18.47;63.89
23281;BME280;11809;56.390;-3.266;2022-08-23T00:56:24;100547.81;;;18.46;63.96
23281;BME280;11809;56.390;-3.266;2022-08-23T00:58:55;100546.13;;;18.45;63.86
23281;BME280;11809;56.390;-3.266;2022-08-23T01:01:22;100543.44;;;18.45;64.11
23281;BME280;11809;56.390;-3.266;2022-08-23T01:03:53;100536.31;;;18.46;64.07
23281;BME280;11809;56.390;-3.266;2022-08-23T01:06:45;100542.50;;;18.46;63.95
23281;BME280;11809;56.390;-3.266;2022-08-23T01:09:16;100539.94;;;18.45;64.01
23281;BME280;11809;56.390;-3.266;2022-08-23T01:12:19;100531.09;;;18.44;63.94
23281;BME280;11809;56.390;-3.266;2022-08-23T01:15:13;100547.06;;;18.44;64.01
23281;BME280;11809;56.390;-3.266;2022-08-23T01:17:47;100546.25;;;18.44;63.81
23281;BME280;11809;56.390;-3.266;2022-08-23T01:20:19;100538.25;;;18.44;63.97
23281;BME280;11809;56.390;-3.266;2022-08-23T01:22:59;100548.03;;;18.43;63.98
23281;BME280;11809;56.390;-3.266;2022-08-23T01:25:29;100548.03;;;18.43;64.02
23281;BME280;11809;56.390;-3.266;2022-08-23T01:27:57;100557.84;;;18.43;64.15
23281;BME280;11809;56.390;-3.266;2022-08-23T01:30:29;100556.97;;;18.42;64.16
23281;BME280;11809;56.390;-3.266;2022-08-23T01:33:00;100557.97;;;18.41;63.95
23281;BME280;11809;56.390;-3.266;2022-08-23T01:35:45;100558.91;;;18.40;64.14
23281;BME280;11809;56.390;-3.266;2022-08-23T01:38:14;100549.22;;;18.39;64.21
23281;BME280;11809;56.390;-3.266;2022-08-23T01:40:42;100556.25;;;18.40;64.04
23281;BME280;11809;56.390;-3.266;2022-08-23T01:43:10;100555.31;;;18.41;64.15
23281;BME280;11809;56.390;-3.266;2022-08-23T01:45:40;100555.31;;;18.41;63.99
23281;BME280;11809;56.390;-3.266;2022-08-23T01:48:07;100543.91;;;18.39;64.14
23281;BME280;11809;56.390;-3.266;2022-08-23T01:50:34;100552.63;;;18.41;64.15
23281;BME280;11809;56.390;-3.266;2022-08-23T01:53:21;100546.56;;;18.39;63.99
23281;BME280;11809;56.390;-3.266;2022-08-23T01:55:49;100535.91;;;18.39;64.23
23281;BME280;11809;56.390;-3.266;2022-08-23T01:58:16;100535.91;;;18.39;64.05
23281;BME280;11809;56.390;-3.266;2022-08-23T02:00:43;100537.63;;;18.40;63.99
23281;BME280;11809;56.390;-3.266;2022-08-23T02:03:10;100542.09;;;18.40;64.01
23281;BME280;11809;56.390;-3.266;2022-08-23T02:05:40;100536.75;;;18.40;64.04
23281;BME280;11809;56.390;-3.266;2022-08-23T02:08:08;100534.22;;;18.38;64.00
23281;BME280;11809;56.390;-3.266;2022-08-23T02:10:54;100532.44;;;18.39;64.12
23281;BME280;11809;56.390;-3.266;2022-08-23T02:13:21;100528.91;;;18.38;64.03
23281;BME280;11809;56.390;-3.266;2022-08-23T02:15:49;100528.91;;;18.38;64.18
23281;BME280;11809;56.390;-3.266;2022-08-23T02:18:19;100530.72;;;18.38;64.04
23281;BME280;11809;56.390;-3.266;2022-08-23T02:20:50;100523.59;;;18.38;64.19
23281;BME280;11809;56.390;-3.266;2022-08-23T02:23:18;100528.06;;;18.38;64.06
23281;BME280;11809;56.390;-3.266;2022-08-23T02:25:45;100528.91;;;18.38;64.11
23281;BME280;11809;56.390;-3.266;2022-08-23T02:28:12;100527.19;;;18.37;63.95
23281;BME280;11809;56.390;-3.266;2022-08-23T02:30:39;100525.53;;;18.36;64.26
23281;BME280;11809;56.390;-3.266;2022-08-23T02:33:07;100523.69;;;18.37;64.01
23281;BME280;11809;56.390;-3.266;2022-08-23T02:35:34;100536.16;;;18.36;64.18
23281;BME280;11809;56.390;-3.266;2022-08-23T02:38:07;100533.50;;;18.36;63.94
23281;BME280;11809;56.390;-3.266;2022-08-23T02:40:37;100530.84;;;18.36;63.95
23281;BME280;11809;56.390;-3.266;2022-08-23T02:43:04;100530.00;;;18.36;64.08
23281;BME280;11809;56.390;-3.266;2022-08-23T02:45:32;100539.78;;;18.35;64.22
23281;BME280;11809;56.390;-3.266;2022-08-23T02:48:00;100541.50;;;18.36;64.09
23281;BME280;11809;56.390;-3.266;2022-08-23T02:50:27;100535.31;;;18.36;63.99
23281;BME280;11809;56.390;-3.266;2022-08-23T02:52:56;100532.75;;;18.34;64.01
23281;BME280;11809;56.390;-3.266;2022-08-23T02:55:24;100534.47;;;18.35;64.13
23281;BME280;11809;56.390;-3.266;2022-08-23T02:57:51;100542.31;;;18.37;64.09
23281;BME280;11809;56.390;-3.266;2022-08-23T03:00:19;100531.66;;;18.37;64.02
23281;BME280;11809;56.390;-3.266;2022-08-23T03:02:47;100526.47;;;18.35;64.17
23281;BME280;11809;56.390;-3.266;2022-08-23T03:05:14;100528.28;;;18.35;64.03
23281;BME280;11809;56.390;-3.266;2022-08-23T03:07:42;100526.56;;;18.34;64.07
23281;BME280;11809;56.390;-3.266;2022-08-23T03:10:10;100539.06;;;18.33;64.14
23281;BME280;11809;56.390;-3.266;2022-08-23T03:12:37;100536.38;;;18.33;64.13
23281;BME280;11809;56.390;-3.266;2022-08-23T03:15:05;100527.44;;;18.34;64.10
23281;BME280;11809;56.390;-3.266;2022-08-23T03:17:33;100531.91;;;18.34;64.16
23281;BME280;11809;56.390;-3.266;2022-08-23T03:20:00;100537.13;;;18.35;64.04
23281;BME280;11809;56.390;-3.266;2022-08-23T03:22:27;100534.47;;;18.35;63.87
23281;BME280;11809;56.390;-3.266;2022-08-23T03:24:54;100543.28;;;18.36;63.86
23281;BME280;11809;56.390;-3.266;2022-08-23T03:27:20;100539.78;;;18.35;63.92
23281;BME280;11809;56.390;-3.266;2022-08-23T03:29:47;100545.09;;;18.35;63.86
23281;BME280;11809;56.390;-3.266;2022-08-23T03:32:14;100543.38;;;18.34;63.93
23281;BME280;11809;56.390;-3.266;2022-08-23T03:34:42;100546.81;;;18.36;63.94
23281;BME280;11809;56.390;-3.266;2022-08-23T03:37:09;100538.81;;;18.36;63.88
23281;BME280;11809;56.390;-3.266;2022-08-23T03:39:36;100536.25;;;18.35;64.03
23281;BME280;11809;56.390;-3.266;2022-08-23T03:42:03;100532.75;;;18.34;63.85
23281;BME280;11809;56.390;-3.266;2022-08-23T03:44:30;100537.22;;;18.34;63.84
23281;BME280;11809;56.390;-3.266;2022-08-23T03:46:58;100538.06;;;18.34;63.67
23281;BME280;11809;56.390;-3.266;2022-08-23T03:49:26;100538.06;;;18.34;63.86
23281;BME280;11809;56.390;-3.266;2022-08-23T03:51:53;100533.72;;;18.33;63.74
23281;BME280;11809;56.390;-3.266;2022-08-23T03:54:20;100532.03;;;18.32;64.00
23281;BME280;11809;56.390;-3.266;2022-08-23T03:57:00;100540.84;;;18.33;63.95
23281;BME280;11809;56.390;-3.266;2022-08-23T03:59:30;100534.69;;;18.32;63.85
23281;BME280;11809;56.390;-3.266;2022-08-23T04:01:58;100540.00;;;18.32;63.83
23281;BME280;11809;56.390;-3.266;2022-08-23T04:04:25;100535.53;;;18.33;63.97
23281;BME280;11809;56.390;-3.266;2022-08-23T04:06:53;100531.06;;;18.33;63.84
23281;BME280;11809;56.390;-3.266;2022-08-23T04:09:21;100529.34;;;18.32;63.62
23281;BME280;11809;56.390;-3.266;2022-08-23T04:11:48;100532.88;;;18.33;63.90
23281;BME280;11809;56.390;-3.266;2022-08-23T04:14:16;100525.75;;;18.33;63.77
23281;BME280;11809;56.390;-3.266;2022-08-23T04:16:43;100526.56;;;18.34;63.60
23281;BME280;11809;56.390;-3.266;2022-08-23T04:19:12;100525.75;;;18.33;63.60
23281;BME280;11809;56.390;-3.266;2022-08-23T04:21:43;100535.53;;;18.33;63.80
23281;BME280;11809;56.390;-3.266;2022-08-23T04:24:11;100532.75;;;18.34;63.86
23281;BME280;11809;56.390;-3.266;2022-08-23T04:26:38;100533.72;;;18.33;63.74
23281;BME280;11809;56.390;-3.266;2022-08-23T04:29:08;100539.06;;;18.33;63.59
23281;BME280;11809;56.390;-3.266;2022-08-23T04:31:50;100540.72;;;18.34;63.54
23281;BME280;11809;56.390;-3.266;2022-08-23T04:34:16;100538.06;;;18.34;63.77
23281;BME280;11809;56.390;-3.266;2022-08-23T04:36:45;100538.19;;;18.33;63.75
23281;BME280;11809;56.390;-3.266;2022-08-23T04:39:20;100540.00;;;18.32;63.76
23281;BME280;11809;56.390;-3.266;2022-08-23T04:41:47;100545.31;;;18.32;63.54
23281;BME280;11809;56.390;-3.266;2022-08-23T04:44:32;100545.31;;;18.32;63.58
23281;BME280;11809;56.390;-3.266;2022-08-23T04:46:59;100550.66;;;18.32;63.60
23281;BME280;11809;56.390;-3.266;2022-08-23T04:49:26;100553.31;;;18.32;63.57
23281;BME280;11809;56.390;-3.266;2022-08-23T04:51:53;100553.44;;;18.31;63.74
23281;BME280;11809;56.390;-3.266;2022-08-23T04:54:21;100548.94;;;18.31;63.73
23281;BME280;11809;56.390;-3.266;2022-08-23T04:56:48;100552.56;;;18.30;63.72
23281;BME280;11809;56.390;-3.266;2022-08-23T04:59:17;100548.09;;;18.31;63.80
23281;BME280;11809;56.390;-3.266;2022-08-23T05:01:45;100547.25;;;18.30;63.87
23281;BME280;11809;56.390;-3.266;2022-08-23T05:04:12;100545.53;;;18.29;63.83
23281;BME280;11809;56.390;-3.266;2022-08-23T05:06:39;100546.41;;;18.30;63.80
23281;BME280;11809;56.390;-3.266;2022-08-23T05:09:06;100547.25;;;18.30;63.66
23281;BME280;11809;56.390;-3.266;2022-08-23T05:11:33;100544.69;;;18.29;63.84
23281;BME280;11809;56.390;-3.266;2022-08-23T05:14:00;100546.41;;;18.30;64.07
23281;BME280;11809;56.390;-3.266;2022-08-23T05:16:27;100545.75;;;18.26;64.69
23281;BME280;11809;56.390;-3.266;2022-08-23T05:18:55;100539.72;;;18.24;65.25
23281;BME280;11809;56.390;-3.266;2022-08-23T05:21:23;100549.72;;;18.21;65.68
23281;BME280;11809;56.390;-3.266;2022-08-23T05:23:51;100551.56;;;18.20;66.04
23281;BME280;11809;56.390;-3.266;2022-08-23T05:26:20;100546.97;;;18.22;65.70
23281;BME280;11809;56.390;-3.266;2022-08-23T05:28:47;100544.91;;;18.26;65.47
23281;BME280;11809;56.390;-3.266;2022-08-23T05:31:23;100538.63;;;18.27;65.70
23281;BME280;11809;56.390;-3.266;2022-08-23T05:33:51;100543.09;;;18.26;65.41
23281;BME280;11809;56.390;-3.266;2022-08-23T05:36:19;100549.19;;;18.28;65.64
23281;BME280;11809;56.390;-3.266;2022-08-23T05:38:47;100549.91;;;18.30;65.62
23281;BME280;11809;56.390;-3.266;2022-08-23T05:41:15;100546.19;;;18.33;66.32
23281;BME280;11809;56.390;-3.266;2022-08-23T05:43:43;100553.09;;;18.35;66.37
23281;BME280;11809;56.390;-3.266;2022-08-23T05:46:14;100553.81;;;18.37;66.25
23281;BME280;11809;56.390;-3.266;2022-08-23T05:48:47;100552.94;;;18.37;66.05
23281;BME280;11809;56.390;-3.266;2022-08-23T05:53:47;100553.81;;;18.37;65.66
23281;BME280;11809;56.390;-3.266;2022-08-23T05:56:17;100560.84;;;18.38;65.87
23281;BME280;11809;56.390;-3.266;2022-08-23T05:58:46;100569.56;;;18.40;65.89
23281;BME280;11809;56.390;-3.266;2022-08-23T06:01:13;100569.34;;;18.43;66.00
23281;BME280;11809;56.390;-3.266;2022-08-23T06:03:41;100569.88;;;18.48;65.61
23281;BME280;11809;56.390;-3.266;2022-08-23T06:06:09;100571.59;;;18.49;65.52
23281;BME280;11809;56.390;-3.266;2022-08-23T06:08:37;100563.34;;;18.52;65.78
23281;BME280;11809;56.390;-3.266;2022-08-23T06:11:08;100567.84;;;18.52;65.64
23281;BME280;11809;56.390;-3.266;2022-08-23T06:13:44;100556.34;;;18.51;65.44
23281;BME280;11809;56.390;-3.266;2022-08-23T06:16:13;100553.69;;;18.51;65.77
23281;BME280;11809;56.390;-3.266;2022-08-23T06:18:41;100549.31;;;18.50;65.49
23281;BME280;11809;56.390;-3.266;2022-08-23T06:21:12;100552.94;;;18.49;65.57
23281;BME280;11809;56.390;-3.266;2022-08-23T06:23:41;100554.63;;;18.50;65.44
23281;BME280;11809;56.390;-3.266;2022-08-23T06:26:17;100559.09;;;18.50;65.51
23281;BME280;11809;56.390;-3.266;2022-08-23T06:28:47;100560.81;;;18.51;65.49
23281;BME280;11809;56.390;-3.266;2022-08-23T06:31:18;100570.28;;;18.55;65.20
23281;BME280;11809;56.390;-3.266;2022-08-23T06:34:07;100565.06;;;18.53;65.19
23281;BME280;11809;56.390;-3.266;2022-08-23T06:36:34;100563.34;;;18.52;65.90
23281;BME280;11809;56.390;-3.266;2022-08-23T06:39:05;100572.31;;;18.51;66.25
23281;BME280;11809;56.390;-3.266;2022-08-23T06:41:32;100566.13;;;18.51;66.34
23281;BME280;11809;56.390;-3.266;2022-08-23T06:44:00;100573.16;;;18.52;66.37
23281;BME280;11809;56.390;-3.266;2022-08-23T06:46:28;100568.66;;;18.52;66.77
23281;BME280;11809;56.390;-3.266;2022-08-23T06:48:56;100569.75;;;18.50;66.55
23281;BME280;11809;56.390;-3.266;2022-08-23T06:51:27;100567.22;;;18.48;66.19
23281;BME280;11809;56.390;-3.266;2022-08-23T06:53:57;100570.72;;;18.49;66.23
23281;BME280;11809;56.390;-3.266;2022-08-23T06:56:29;100564.66;;;18.47;66.16
23281;BME280;11809;56.390;-3.266;2022-08-23T06:58:56;100564.75;;;18.45;65.97
23281;BME280;11809;56.390;-3.266;2022-08-23T07:04:14;100561.34;;;18.43;65.62
23281;BME280;11809;56.390;-3.266;2022-08-23T07:06:41;100566.66;;;18.43;66.04
23281;BME280;11809;56.390;-3.266;2022-08-23T07:09:09;100567.63;;;18.42;65.93
23281;BME280;11809;56.390;-3.266;2022-08-23T07:11:36;100566.75;;;18.42;65.80
23281;BME280;11809;56.390;-3.266;2022-08-23T07:14:07;100560.63;;;18.41;65.67
23281;BME280;11809;56.390;-3.266;2022-08-23T07:16:42;100567.63;;;18.42;65.93
23281;BME280;11809;56.390;-3.266;2022-08-23T07:19:11;100574.44;;;18.46;65.91
23281;BME280;11809;56.390;-3.266;2022-08-23T07:21:39;100576.16;;;18.47;65.35
23281;BME280;11809;56.390;-3.266;2022-08-23T07:24:06;100575.91;;;18.50;65.56
23281;BME280;11809;56.390;-3.266;2022-08-23T07:26:35;100568.66;;;18.52;65.48
23281;BME280;11809;56.390;-3.266;2022-08-23T07:29:04;100571.22;;;18.54;65.67
23281;BME280;11809;56.390;-3.266;2022-08-23T07:31:34;100576.44;;;18.55;65.46
23281;BME280;11809;56.390;-3.266;2022-08-23T07:34:05;100581.75;;;18.55;65.67
23281;BME280;11809;56.390;-3.266;2022-08-23T07:36:37;100586.00;;;18.58;65.37
23281;BME280;11809;56.390;-3.266;2022-08-23T07:39:07;100593.03;;;18.59;65.55
23281;BME280;11809;56.390;-3.266;2022-08-23T07:41:35;100586.84;;;18.58;65.26
23281;BME280;11809;56.390;-3.266;2022-08-23T07:44:08;100590.16;;;18.62;65.31
23281;BME280;11809;56.390;-3.266;2022-08-23T07:46:38;100588.13;;;18.65;65.35
23281;BME280;11809;56.390;-3.266;2022-08-23T07:49:07;100596.94;;;18.66;65.31
23281;BME280;11809;56.390;-3.266;2022-08-23T07:51:38;100593.31;;;18.67;65.29
23281;BME280;11809;56.390;-3.266;2022-08-23T07:54:08;100600.22;;;18.69;64.73
23281;BME280;11809;56.390;-3.266;2022-08-23T07:56:36;100604.59;;;18.70;65.17
23281;BME280;11809;56.390;-3.266;2022-08-23T07:59:07;100603.59;;;18.71;64.97
23281;BME280;11809;56.390;-3.266;2022-08-23T08:01:36;100599.00;;;18.73;64.87
23281;BME280;11809;56.390;-3.266;2022-08-23T08:04:04;100596.25;;;18.75;65.22
23281;BME280;11809;56.390;-3.266;2022-08-23T08:06:43;100588.03;;;18.78;65.12
23281;BME280;11809;56.390;-3.266;2022-08-23T08:09:13;100593.13;;;18.81;65.04
23281;BME280;11809;56.390;-3.266;2022-08-23T08:11:43;100585.97;;;18.82;65.02
23281;BME280;11809;56.390;-3.266;2022-08-23T08:14:15;100586.84;;;18.82;64.69
23281;BME280;11809;56.390;-3.266;2022-08-23T08:16:47;100593.88;;;18.83;64.57
23281;BME280;11809;56.390;-3.266;2022-08-23T08:19:15;100594.72;;;18.84;64.59
23281;BME280;11809;56.390;-3.266;2022-08-23T08:21:46;100586.72;;;18.84;64.83
23281;BME280;11809;56.390;-3.266;2022-08-23T08:24:15;100589.25;;;18.85;64.54
23281;BME280;11809;56.390;-3.266;2022-08-23T08:26:43;100594.50;;;18.87;64.75
23281;BME280;11809;56.390;-3.266;2022-08-23T08:29:12;100592.78;;;18.86;65.20
23281;BME280;11809;56.390;-3.266;2022-08-23T08:31:41;100592.78;;;18.86;64.82
23281;BME280;11809;56.390;-3.266;2022-08-23T08:34:09;100588.31;;;18.86;65.11
23281;BME280;11809;56.390;-3.266;2022-08-23T08:36:37;100590.84;;;18.88;64.99
23281;BME280;11809;56.390;-3.266;2022-08-23T08:39:09;100594.38;;;18.88;64.95
23281;BME280;11809;56.390;-3.266;2022-08-23T08:44:50;100598.75;;;18.89;64.68
23281;BME280;11809;56.390;-3.266;2022-08-23T08:50:11;100601.16;;;18.92;64.59
23281;BME280;11809;56.390;-3.266;2022-08-23T08:52:48;100606.47;;;18.92;64.54
23281;BME280;11809;56.390;-3.266;2022-08-23T08:55:24;100605.66;;;18.92;64.69
23281;BME280;11809;56.390;-3.266;2022-08-23T08:57:53;100604.66;;;18.93;64.57
23281;BME280;11809;56.390;-3.266;2022-08-23T09:00:44;100604.56;;;18.94;64.41
23281;BME280;11809;56.390;-3.266;2022-08-23T09:03:15;100595.72;;;18.94;64.61
23281;BME280;11809;56.390;-3.266;2022-08-23T09:05:56;100603.72;;;18.94;64.51
23281;BME280;11809;56.390;-3.266;2022-08-23T09:11:55;100603.59;;;18.95;64.68
23281;BME280;11809;56.390;-3.266;2022-08-23T09:17:34;100604.44;;;18.96;64.40
23281;BME280;11809;56.390;-3.266;2022-08-23T09:20:05;100604.22;;;18.99;64.58
23281;BME280;11809;56.390;-3.266;2022-08-23T09:22:43;100595.28;;;19.00;64.75
23281;BME280;11809;56.390;-3.266;2022-08-23T09:25:14;100598.88;;;18.99;64.63
23281;BME280;11809;56.390;-3.266;2022-08-23T09:27:44;100594.41;;;18.99;64.45
23281;BME280;11809;56.390;-3.266;2022-08-23T09:30:15;100591.63;;;19.01;64.61
23281;BME280;11809;56.390;-3.266;2022-08-23T09:32:46;100596.84;;;19.02;64.75
23281;BME280;11809;56.390;-3.266;2022-08-23T09:35:21;100592.25;;;19.04;64.54
23281;BME280;11809;56.390;-3.266;2022-08-23T09:43:07;100588.50;;;19.07;64.29
23281;BME280;11809;56.390;-3.266;2022-08-23T09:45:38;100591.16;;;19.07;64.53
23281;BME280;11809;56.390;-3.266;2022-08-23T09:48:11;100592.88;;;19.08;65.28
23281;BME280;11809;56.390;-3.266;2022-08-23T09:50:52;100588.38;;;19.08;64.73
23281;BME280;11809;56.390;-3.266;2022-08-23T09:53:25;100601.59;;;19.10;64.73
23281;BME280;11809;56.390;-3.266;2022-08-23T09:55:56;100597.84;;;19.12;64.90
23281;BME280;11809;56.390;-3.266;2022-08-23T09:58:40;100592.59;;;19.11;64.71
23281;BME280;11809;56.390;-3.266;2022-08-23T10:03:40;100586.31;;;19.12;64.64
23281;BME280;11809;56.390;-3.266;2022-08-23T10:06:11;100587.91;;;19.14;64.62
23281;BME280;11809;56.390;-3.266;2022-08-23T10:08:53;100591.44;;;19.15;64.60
23281;BME280;11809;56.390;-3.266;2022-08-23T10:11:24;100586.94;;;19.15;64.71
23281;BME280;11809;56.390;-3.266;2022-08-23T10:13:55;100587.91;;;19.14;64.39
23281;BME280;11809;56.390;-3.266;2022-08-23T10:21:45;100592.88;;;19.19;63.97
23281;BME280;11809;56.390;-3.266;2022-08-23T10:30:14;100588.53;;;19.18;64.20
23281;BME280;11809;56.390;-3.266;2022-08-23T10:32:51;100593.00;;;19.17;64.30
23281;BME280;11809;56.390;-3.266;2022-08-23T10:35:25;100593.88;;;19.18;64.28
23281;BME280;11809;56.390;-3.266;2022-08-23T10:41:11;100584.88;;;19.19;64.18
23281;BME280;11809;56.390;-3.266;2022-08-23T10:46:10;100584.88;;;19.19;64.28
23281;BME280;11809;56.390;-3.266;2022-08-23T10:48:56;100582.13;;;19.20;64.29
23281;BME280;11809;56.390;-3.266;2022-08-23T10:51:33;100587.44;;;19.20;64.23
23281;BME280;11809;56.390;-3.266;2022-08-23T10:55:09;100584.66;;;19.22;63.93
23281;BME280;11809;56.390;-3.266;2022-08-23T10:57:17;100596.16;;;19.22;63.97
23281;BME280;11809;56.390;-3.266;2022-08-23T10:59:48;100598.72;;;19.24;64.01
23281;BME280;11809;56.390;-3.266;2022-08-23T11:02:43;100596.06;;;19.24;64.08
23281;BME280;11809;56.390;-3.266;2022-08-23T11:05:24;100595.06;;;19.25;63.72
23281;BME280;11809;56.390;-3.266;2022-08-23T11:08:01;100604.06;;;19.24;64.17
23281;BME280;11809;56.390;-3.266;2022-08-23T11:13:20;100598.72;;;19.24;64.01
23281;BME280;11809;56.390;-3.266;2022-08-23T11:16:04;100598.72;;;19.24;63.78
23281;BME280;11809;56.390;-3.266;2022-08-23T11:31:49;100603.47;;;19.31;67.02
23281;BME280;11809;56.390;-3.266;2022-08-23T11:34:32;100598.84;;;19.33;67.72
23281;BME280;11809;56.390;-3.266;2022-08-23T11:44:55;100608.44;;;19.36;70.06
23281;BME280;11809;56.390;-3.266;2022-08-23T11:47:40;100605.56;;;19.39;70.14
23281;BME280;11809;56.390;-3.266;2022-08-23T11:50:36;100600.22;;;19.39;69.95
23281;BME280;11809;56.390;-3.266;2022-08-23T11:53:43;100600.72;;;19.44;69.30
23281;BME280;11809;56.390;-3.266;2022-08-23T11:56:38;100605.81;;;19.47;68.58
23281;BME280;11809;56.390;-3.266;2022-08-23T12:00:27;100596.84;;;19.48;67.45
23281;BME280;11809;56.390;-3.266;2022-08-23T12:02:43;100616.13;;;19.52;68.23
23281;BME280;11809;56.390;-3.266;2022-08-23T12:26:45;100625.72;;;19.65;66.86
23281;BME280;11809;56.390;-3.266;2022-08-23T12:29:33;100624.75;;;19.66;66.94
23281;BME280;11809;56.390;-3.266;2022-08-23T12:32:19;100621.81;;;19.69;67.83
23281;BME280;11809;56.390;-3.266;2022-08-23T12:38:29;100617.13;;;19.73;67.23
23281;BME280;11809;56.390;-3.266;2022-08-23T12:40:41;100619.69;;;19.74;67.81
23281;BME280;11809;56.390;-3.266;2022-08-23T12:43:17;100622.06;;;19.77;67.20
23281;BME280;11809;56.390;-3.266;2022-08-23T12:45:56;100626.34;;;19.80;67.19
23281;BME280;11809;56.390;-3.266;2022-08-23T12:48:27;100623.41;;;19.83;67.83
23281;BME280;11809;56.390;-3.266;2022-08-23T12:51:01;100621.59;;;19.83;68.00
23281;BME280;11809;56.390;-3.266;2022-08-23T12:53:34;100616.97;;;19.85;67.94
23281;BME280;11809;56.390;-3.266;2022-08-23T12:56:21;100629.13;;;19.89;68.68
23281;BME280;11809;56.390;-3.266;2022-08-23T12:59:00;100619.31;;;19.90;68.08
23281;BME280;11809;56.390;-3.266;2022-08-23T13:01:33;100627.19;;;19.91;67.99
23281;BME280;11809;56.390;-3.266;2022-08-23T13:04:11;100628.66;;;19.95;67.86
23281;BME280;11809;56.390;-3.266;2022-08-23T13:06:46;100632.03;;;19.98;68.17
23281;BME280;11809;56.390;-3.266;2022-08-23T13:09:28;100629.22;;;19.99;68.17
23281;BME280;11809;56.390;-3.266;2022-08-23T13:11:57;100626.69;;;19.98;68.49
23281;BME280;11809;56.390;-3.266;2022-08-23T13:20:11;100624.28;;;20.06;68.16
23281;BME280;11809;56.390;-3.266;2022-08-23T13:22:59;100625.13;;;20.06;67.78
23281;BME280;11809;56.390;-3.266;2022-08-23T13:25:37;100629.38;;;20.09;67.41
23281;BME280;11809;56.390;-3.266;2022-08-23T13:28:25;100622.94;;;20.11;67.80
23281;BME280;11809;56.390;-3.266;2022-08-23T13:31:04;100623.66;;;20.13;67.54
23281;BME280;11809;56.390;-3.266;2022-08-23T13:33:34;100622.69;;;20.14;66.94
23281;BME280;11809;56.390;-3.266;2022-08-23T13:38:39;100621.34;;;20.20;66.87
23281;BME280;11809;56.390;-3.266;2022-08-23T13:41:09;100622.19;;;20.20;67.59
23281;BME280;11809;56.390;-3.266;2022-08-23T13:49:01;100622.81;;;20.24;67.05
23281;BME280;11809;56.390;-3.266;2022-08-23T13:54:04;100616.53;;;20.25;67.36
23281;BME280;11809;56.390;-3.266;2022-08-23T13:56:39;100627.22;;;20.25;66.86
23281;BME280;11809;56.390;-3.266;2022-08-23T14:01:50;100626.81;;;20.29;68.07
23281;BME280;11809;56.390;-3.266;2022-08-23T14:04:18;100623.31;;;20.29;67.63
23281;BME280;11809;56.390;-3.266;2022-08-23T14:06:45;100624.28;;;20.28;67.19
23281;BME280;11809;56.390;-3.266;2022-08-23T14:09:14;100619.66;;;20.30;66.69
23281;BME280;11809;56.390;-3.266;2022-08-23T14:11:42;100626.69;;;20.31;67.62
23281;BME280;11809;56.390;-3.266;2022-08-23T14:14:11;100624.03;;;20.31;67.25
23281;BME280;11809;56.390;-3.266;2022-08-23T14:16:40;100630.22;;;20.31;66.55
23281;BME280;11809;56.390;-3.266;2022-08-23T14:19:10;100625.97;;;20.29;66.65
23281;BME280;11809;56.390;-3.266;2022-08-23T14:21:58;100631.31;;;20.29;66.83
23281;BME280;11809;56.390;-3.266;2022-08-23T14:24:26;100629.63;;;20.28;67.07
23281;BME280;11809;56.390;-3.266;2022-08-23T14:26:55;100629.63;;;20.28;67.20
23281;BME280;11809;56.390;-3.266;2022-08-23T14:29:25;100624.03;;;20.31;67.50
23281;BME280;11809;56.390;-3.266;2022-08-23T14:31:56;100631.06;;;20.32;67.71
23281;BME280;11809;56.390;-3.266;2022-08-23T14:34:25;100630.34;;;20.30;67.44
23281;BME280;11809;56.390;-3.266;2022-08-23T14:36:53;100628.53;;;20.30;67.61
23281;BME280;11809;56.390;-3.266;2022-08-23T14:39:41;100630.22;;;20.31;67.15
23281;BME280;11809;56.390;-3.266;2022-08-23T14:42:10;100625.88;;;20.30;66.76
23281;BME280;11809;56.390;-3.266;2022-08-23T14:44:38;100622.19;;;20.31;66.54
23281;BME280;11809;56.390;-3.266;2022-08-23T14:47:05;100629.25;;;20.32;65.95
23281;BME280;11809;56.390;-3.266;2022-08-23T14:49:32;100630.09;;;20.33;67.05
23281;BME280;11809;56.390;-3.266;2022-08-23T14:52:01;100636.41;;;20.32;66.59
23281;BME280;11809;56.390;-3.266;2022-08-23T14:54:28;100641.88;;;20.30;67.81
23281;BME280;11809;56.390;-3.266;2022-08-23T14:56:56;100638.13;;;20.33;67.24
23281;BME280;11809;56.390;-3.266;2022-08-23T14:59:23;100639.78;;;20.34;67.23